sensor_id;sensor_type;location;lat;lon;timestamp;temperature;humidity
21805;DHT22;11064;47.102;15.452;2023-07-29T00:01:41;17.50;99.90
21805;DHT22;11064;47.102;15.452;2023-07-29T00:04:08;17.50;99.90
21805;DHT22;11064;47.102;15.452;2023-07-29T00:06:36;17.50;99.90
21805;DHT22;11064;47.102;15.452;2023-07-29T00:09:02;17.60;99.90
21805;DHT22;11064;47.102;15.452;2023-07-29T00:11:28;17.60;99.90
21805;DHT22;11064;47.102;15.452;2023-07-29T00:13:54;17.60;99.90
21805;DHT22;11064;47.102;15.452;2023-07-29T00:16:20;17.60;99.90
21805;DHT22;11064;47.102;15.452;2023-07-29T00:18:49;17.60;99.90
21805;DHT22;11064;47.102;15.452;2023-07-29T00:21:15;17.60;99.90
21805;DHT22;11064;47.102;15.452;2023-07-29T00:23:41;17.50;99.90
21805;DHT22;11064;47.102;15.452;2023-07-29T00:26:07;17.40;99.90
21805;DHT22;11064;47.102;15.452;2023-07-29T00:28:33;17.40;99.90
21805;DHT22;11064;47.102;15.452;2023-07-29T00:30:59;17.40;99.90
21805;DHT22;11064;47.102;15.452;2023-07-29T00:33:25;17.30;99.90
21805;DHT22;11064;47.102;15.452;2023-07-29T00:35:50;17.30;99.90
21805;DHT22;11064;47.102;15.452;2023-07-29T00:38:16;17.10;99.90
21805;DHT22;11064;47.102;15.452;2023-07-29T00:40:42;17.00;99.90
21805;DHT22;11064;47.102;15.452;2023-07-29T00:43:08;17.10;99.90
21805;DHT22;11064;47.102;15.452;2023-07-29T00:45:34;17.00;99.90
21805;DHT22;11064;47.102;15.452;2023-07-29T00:48:01;17.00;99.90
21805;DHT22;11064;47.102;15.452;2023-07-29T00:50:29;16.90;99.90
21805;DHT22;11064;47.102;15.452;2023-07-29T00:52:56;16.90;99.90
21805;DHT22;11064;47.102;15.452;2023-07-29T00:55:23;17.00;99.90
21805;DHT22;11064;47.102;15.452;2023-07-29T00:57:49;17.00;99.90
21805;DHT22;11064;47.102;15.452;2023-07-29T01:00:17;17.00;99.90
21805;DHT22;11064;47.102;15.452;2023-07-29T01:02:43;17.00;99.90
21805;DHT22;11064;47.102;15.452;2023-07-29T01:05:13;17.10;99.90
21805;DHT22;11064;47.102;15.452;2023-07-29T01:12:54;16.90;99.90
21805;DHT22;11064;47.102;15.452;2023-07-29T01:16:02;16.80;99.90
21805;DHT22;11064;47.102;15.452;2023-07-29T01:18:31;16.70;99.90
21805;DHT22;11064;47.102;15.452;2023-07-29T01:21:03;16.70;99.90
21805;DHT22;11064;47.102;15.452;2023-07-29T01:23:36;16.70;99.90
21805;DHT22;11064;47.102;15.452;2023-07-29T01:26:03;16.60;99.90
21805;DHT22;11064;47.102;15.452;2023-07-29T01:28:29;16.50;99.90
21805;DHT22;11064;47.102;15.452;2023-07-29T01:31:16;16.40;99.90
21805;DHT22;11064;47.102;15.452;2023-07-29T01:33:53;16.30;99.90
21805;DHT22;11064;47.102;15.452;2023-07-29T01:36:23;16.30;99.90
21805;DHT22;11064;47.102;15.452;2023-07-29T01:38:52;16.20;99.90
21805;DHT22;11064;47.102;15.452;2023-07-29T01:41:19;16.10;99.90
21805;DHT22;11064;47.102;15.452;2023-07-29T01:43:46;16.00;99.90
21805;DHT22;11064;47.102;15.452;2023-07-29T01:46:14;16.00;99.90
21805;DHT22;11064;47.102;15.452;2023-07-29T01:48:40;15.90;99.90
21805;DHT22;11064;47.102;15.452;2023-07-29T01:51:06;15.90;99.90
21805;DHT22;11064;47.102;15.452;2023-07-29T01:53:33;16.00;99.90
21805;DHT22;11064;47.102;15.452;2023-07-29T01:55:59;16.00;99.90
21805;DHT22;11064;47.102;15.452;2023-07-29T01:58:25;16.00;99.90
21805;DHT22;11064;47.102;15.452;2023-07-29T02:00:51;16.00;99.90
21805;DHT22;11064;47.102;15.452;2023-07-29T02:03:17;15.90;99.90
21805;DHT22;11064;47.102;15.452;2023-07-29T02:05:43;15.80;99.90
21805;DHT22;11064;47.102;15.452;2023-07-29T02:08:10;15.80;99.90
21805;DHT22;11064;47.102;15.452;2023-07-29T02:10:36;15.80;99.90
21805;DHT22;11064;47.102;15.452;2023-07-29T02:13:03;15.70;99.90
21805;DHT22;11064;47.102;15.452;2023-07-29T02:15:28;15.70;99.90
21805;DHT22;11064;47.102;15.452;2023-07-29T02:17:54;15.60;99.90
21805;DHT22;11064;47.102;15.452;2023-07-29T02:20:20;15.60;99.90
21805;DHT22;11064;47.102;15.452;2023-07-29T02:22:46;15.70;99.90
21805;DHT22;11064;47.102;15.452;2023-07-29T02:25:14;15.60;99.90
21805;DHT22;11064;47.102;15.452;2023-07-29T02:27:40;15.60;99.90
21805;DHT22;11064;47.102;15.452;2023-07-29T02:30:06;15.60;99.90
21805;DHT22;11064;47.102;15.452;2023-07-29T02:32:35;15.50;99.90
21805;DHT22;11064;47.102;15.452;2023-07-29T02:35:01;15.50;99.90
21805;DHT22;11064;47.102;15.452;2023-07-29T02:37:27;15.60;99.90
21805;DHT22;11064;47.102;15.452;2023-07-29T02:39:52;15.50;99.90
21805;DHT22;11064;47.102;15.452;2023-07-29T02:42:18;15.60;99.90
21805;DHT22;11064;47.102;15.452;2023-07-29T02:44:44;15.60;99.90
21805;DHT22;11064;47.102;15.452;2023-07-29T02:47:10;15.60;99.90
21805;DHT22;11064;47.102;15.452;2023-07-29T02:49:35;15.60;99.90
21805;DHT22;11064;47.102;15.452;2023-07-29T02:52:01;15.70;99.90
21805;DHT22;11064;47.102;15.452;2023-07-29T02:54:27;15.70;99.90
21805;DHT22;11064;47.102;15.452;2023-07-29T02:56:53;15.80;99.90
21805;DHT22;11064;47.102;15.452;2023-07-29T02:59:19;15.90;99.90
21805;DHT22;11064;47.102;15.452;2023-07-29T03:01:45;16.00;99.90
21805;DHT22;11064;47.102;15.452;2023-07-29T03:04:11;16.00;99.90
21805;DHT22;11064;47.102;15.452;2023-07-29T03:06:38;16.10;99.90
21805;DHT22;11064;47.102;15.452;2023-07-29T03:09:04;16.10;99.90
21805;DHT22;11064;47.102;15.452;2023-07-29T03:11:30;16.10;99.90
21805;DHT22;11064;47.102;15.452;2023-07-29T03:13:58;16.10;99.90
21805;DHT22;11064;47.102;15.452;2023-07-29T03:16:24;16.20;99.90
21805;DHT22;11064;47.102;15.452;2023-07-29T03:18:49;16.20;99.90
21805;DHT22;11064;47.102;15.452;2023-07-29T03:21:15;16.20;99.90
21805;DHT22;11064;47.102;15.452;2023-07-29T03:23:41;16.20;99.90
21805;DHT22;11064;47.102;15.452;2023-07-29T03:26:07;16.20;99.90
21805;DHT22;11064;47.102;15.452;2023-07-29T03:28:41;16.20;99.90
21805;DHT22;11064;47.102;15.452;2023-07-29T03:31:07;16.20;99.90
21805;DHT22;11064;47.102;15.452;2023-07-29T03:33:33;16.20;99.90
21805;DHT22;11064;47.102;15.452;2023-07-29T03:35:59;16.20;99.90
21805;DHT22;11064;47.102;15.452;2023-07-29T03:38:25;16.20;99.90
21805;DHT22;11064;47.102;15.452;2023-07-29T03:40:51;16.20;99.90
21805;DHT22;11064;47.102;15.452;2023-07-29T03:43:17;16.20;99.90
21805;DHT22;11064;47.102;15.452;2023-07-29T03:45:42;16.30;99.90
21805;DHT22;11064;47.102;15.452;2023-07-29T03:48:08;16.40;99.90
21805;DHT22;11064;47.102;15.452;2023-07-29T03:50:35;16.40;99.90
21805;DHT22;11064;47.102;15.452;2023-07-29T03:53:05;16.40;99.90
21805;DHT22;11064;47.102;15.452;2023-07-29T03:55:32;16.30;99.90
21805;DHT22;11064;47.102;15.452;2023-07-29T03:57:59;16.40;99.90
21805;DHT22;11064;47.102;15.452;2023-07-29T04:00:25;16.40;99.90
21805;DHT22;11064;47.102;15.452;2023-07-29T04:02:51;16.40;99.90
21805;DHT22;11064;47.102;15.452;2023-07-29T04:05:17;16.30;99.90
21805;DHT22;11064;47.102;15.452;2023-07-29T04:07:43;16.40;99.90
21805;DHT22;11064;47.102;15.452;2023-07-29T04:10:09;16.40;99.90
21805;DHT22;11064;47.102;15.452;2023-07-29T04:12:35;16.40;99.90
21805;DHT22;11064;47.102;15.452;2023-07-29T04:15:01;16.50;99.90
21805;DHT22;11064;47.102;15.452;2023-07-29T04:17:28;16.50;99.90
21805;DHT22;11064;47.102;15.452;2023-07-29T04:19:53;16.60;99.90
21805;DHT22;11064;47.102;15.452;2023-07-29T04:22:19;16.70;99.90
21805;DHT22;11064;47.102;15.452;2023-07-29T04:24:45;16.70;99.90
21805;DHT22;11064;47.102;15.452;2023-07-29T04:27:11;16.70;99.90
21805;DHT22;11064;47.102;15.452;2023-07-29T04:29:37;16.70;99.90
21805;DHT22;11064;47.102;15.452;2023-07-29T04:32:04;16.80;99.90
21805;DHT22;11064;47.102;15.452;2023-07-29T04:34:31;16.80;99.90
21805;DHT22;11064;47.102;15.452;2023-07-29T04:36:57;16.80;99.90
21805;DHT22;11064;47.102;15.452;2023-07-29T04:39:23;16.80;99.90
21805;DHT22;11064;47.102;15.452;2023-07-29T04:41:49;16.90;99.90
21805;DHT22;11064;47.102;15.452;2023-07-29T04:44:15;17.00;99.90
21805;DHT22;11064;47.102;15.452;2023-07-29T05:02:13;17.70;99.90
21805;DHT22;11064;47.102;15.452;2023-07-29T05:04:39;17.90;99.90
21805;DHT22;11064;47.102;15.452;2023-07-29T05:07:05;17.90;99.90
21805;DHT22;11064;47.102;15.452;2023-07-29T05:09:31;18.00;99.90
21805;DHT22;11064;47.102;15.452;2023-07-29T05:11:57;18.10;99.90
21805;DHT22;11064;47.102;15.452;2023-07-29T05:14:22;18.30;99.90
21805;DHT22;11064;47.102;15.452;2023-07-29T05:16:49;18.40;99.90
21805;DHT22;11064;47.102;15.452;2023-07-29T05:19:15;18.30;99.90
21805;DHT22;11064;47.102;15.452;2023-07-29T05:21:41;18.20;99.90
21805;DHT22;11064;47.102;15.452;2023-07-29T05:24:07;18.10;99.90
21805;DHT22;11064;47.102;15.452;2023-07-29T05:26:33;18.00;99.90
21805;DHT22;11064;47.102;15.452;2023-07-29T05:28:59;17.90;99.90
21805;DHT22;11064;47.102;15.452;2023-07-29T05:31:24;17.80;99.90
21805;DHT22;11064;47.102;15.452;2023-07-29T05:33:50;17.70;99.90
21805;DHT22;11064;47.102;15.452;2023-07-29T05:36:16;17.70;99.90
21805;DHT22;11064;47.102;15.452;2023-07-29T05:38:43;17.60;99.90
21805;DHT22;11064;47.102;15.452;2023-07-29T05:41:09;17.50;99.90
21805;DHT22;11064;47.102;15.452;2023-07-29T05:43:35;17.40;99.90
21805;DHT22;11064;47.102;15.452;2023-07-29T05:46:01;17.50;99.90
21805;DHT22;11064;47.102;15.452;2023-07-29T05:48:28;17.50;99.90
21805;DHT22;11064;47.102;15.452;2023-07-29T05:50:54;17.50;99.90
21805;DHT22;11064;47.102;15.452;2023-07-29T05:53:19;17.60;99.90
21805;DHT22;11064;47.102;15.452;2023-07-29T05:55:45;17.60;99.90
21805;DHT22;11064;47.102;15.452;2023-07-29T05:58:11;17.70;99.90
21805;DHT22;11064;47.102;15.452;2023-07-29T06:00:37;17.70;99.90
21805;DHT22;11064;47.102;15.452;2023-07-29T06:03:03;17.70;99.90
21805;DHT22;11064;47.102;15.452;2023-07-29T06:05:29;17.80;99.90
21805;DHT22;11064;47.102;15.452;2023-07-29T06:07:54;17.70;99.90
21805;DHT22;11064;47.102;15.452;2023-07-29T06:10:20;17.70;99.90
21805;DHT22;11064;47.102;15.452;2023-07-29T06:12:47;17.60;99.90
21805;DHT22;11064;47.102;15.452;2023-07-29T06:15:13;17.70;99.90
21805;DHT22;11064;47.102;15.452;2023-07-29T06:17:39;17.70;99.90
21805;DHT22;11064;47.102;15.452;2023-07-29T06:20:06;18.00;99.90
21805;DHT22;11064;47.102;15.452;2023-07-29T06:22:32;18.10;99.90
21805;DHT22;11064;47.102;15.452;2023-07-29T06:24:58;18.50;99.90
21805;DHT22;11064;47.102;15.452;2023-07-29T06:27:25;18.70;99.90
21805;DHT22;11064;47.102;15.452;2023-07-29T06:29:51;19.10;99.90
21805;DHT22;11064;47.102;15.452;2023-07-29T06:32:16;19.40;99.90
21805;DHT22;11064;47.102;15.452;2023-07-29T06:34:42;19.60;99.90
21805;DHT22;11064;47.102;15.452;2023-07-29T06:37:08;19.80;99.90
21805;DHT22;11064;47.102;15.452;2023-07-29T06:39:34;20.00;99.90
21805;DHT22;11064;47.102;15.452;2023-07-29T06:42:00;19.90;99.90
21805;DHT22;11064;47.102;15.452;2023-07-29T06:44:25;20.10;99.90
21805;DHT22;11064;47.102;15.452;2023-07-29T06:46:51;20.40;99.90
21805;DHT22;11064;47.102;15.452;2023-07-29T06:49:17;20.40;99.90
21805;DHT22;11064;47.102;15.452;2023-07-29T06:51:43;20.50;99.90
21805;DHT22;11064;47.102;15.452;2023-07-29T06:54:09;20.10;99.90
21805;DHT22;11064;47.102;15.452;2023-07-29T06:56:36;20.10;99.90
21805;DHT22;11064;47.102;15.452;2023-07-29T06:59:02;20.00;99.90
21805;DHT22;11064;47.102;15.452;2023-07-29T07:01:28;20.20;99.90
21805;DHT22;11064;47.102;15.452;2023-07-29T07:03:54;20.40;99.90
21805;DHT22;11064;47.102;15.452;2023-07-29T07:06:23;20.60;99.90
21805;DHT22;11064;47.102;15.452;2023-07-29T07:08:50;20.80;99.90
21805;DHT22;11064;47.102;15.452;2023-07-29T07:11:18;21.10;99.90
21805;DHT22;11064;47.102;15.452;2023-07-29T07:13:44;21.00;99.90
21805;DHT22;11064;47.102;15.452;2023-07-29T07:16:10;20.90;99.90
21805;DHT22;11064;47.102;15.452;2023-07-29T07:18:35;20.90;99.90
21805;DHT22;11064;47.102;15.452;2023-07-29T07:21:01;20.90;99.90
21805;DHT22;11064;47.102;15.452;2023-07-29T07:23:27;21.10;99.90
21805;DHT22;11064;47.102;15.452;2023-07-29T07:25:53;21.40;99.90
21805;DHT22;11064;47.102;15.452;2023-07-29T07:28:19;21.50;99.90
21805;DHT22;11064;47.102;15.452;2023-07-29T07:30:44;21.60;99.90
21805;DHT22;11064;47.102;15.452;2023-07-29T07:33:10;21.80;99.90
21805;DHT22;11064;47.102;15.452;2023-07-29T07:35:36;22.20;99.90
21805;DHT22;11064;47.102;15.452;2023-07-29T07:38:02;22.50;99.90
21805;DHT22;11064;47.102;15.452;2023-07-29T07:40:31;22.70;99.90
21805;DHT22;11064;47.102;15.452;2023-07-29T07:42:57;22.90;99.90
21805;DHT22;11064;47.102;15.452;2023-07-29T07:45:22;23.20;99.90
21805;DHT22;11064;47.102;15.452;2023-07-29T07:47:48;23.30;99.90
21805;DHT22;11064;47.102;15.452;2023-07-29T07:50:14;23.60;99.90
21805;DHT22;11064;47.102;15.452;2023-07-29T07:52:40;23.70;99.90
21805;DHT22;11064;47.102;15.452;2023-07-29T07:55:06;23.90;99.90
21805;DHT22;11064;47.102;15.452;2023-07-29T07:57:32;24.00;99.90
21805;DHT22;11064;47.102;15.452;2023-07-29T07:59:58;24.20;99.90
21805;DHT22;11064;47.102;15.452;2023-07-29T08:02:24;24.20;99.90
21805;DHT22;11064;47.102;15.452;2023-07-29T08:04:50;23.80;99.90
21805;DHT22;11064;47.102;15.452;2023-07-29T08:07:15;23.90;99.90
21805;DHT22;11064;47.102;15.452;2023-07-29T08:09:42;24.10;99.90
21805;DHT22;11064;47.102;15.452;2023-07-29T08:12:08;24.20;99.90
21805;DHT22;11064;47.102;15.452;2023-07-29T08:14:34;24.30;99.90
21805;DHT22;11064;47.102;15.452;2023-07-29T08:17:00;24.60;99.90
21805;DHT22;11064;47.102;15.452;2023-07-29T08:19:27;24.60;99.90
21805;DHT22;11064;47.102;15.452;2023-07-29T08:21:53;24.70;99.90
21805;DHT22;11064;47.102;15.452;2023-07-29T08:24:18;24.90;99.90
21805;DHT22;11064;47.102;15.452;2023-07-29T08:26:44;24.70;98.50
21805;DHT22;11064;47.102;15.452;2023-07-29T08:29:11;24.90;98.20
21805;DHT22;11064;47.102;15.452;2023-07-29T08:31:38;24.90;97.10
21805;DHT22;11064;47.102;15.452;2023-07-29T08:34:06;25.30;96.70
21805;DHT22;11064;47.102;15.452;2023-07-29T08:36:32;25.50;97.00
21805;DHT22;11064;47.102;15.452;2023-07-29T08:38:58;25.90;98.70
21805;DHT22;11064;47.102;15.452;2023-07-29T08:41:37;25.90;97.90
21805;DHT22;11064;47.102;15.452;2023-07-29T08:44:43;26.00;96.00
21805;DHT22;11064;47.102;15.452;2023-07-29T08:47:03;26.00;93.20
21805;DHT22;11064;47.102;15.452;2023-07-29T08:49:29;25.60;92.70
21805;DHT22;11064;47.102;15.452;2023-07-29T08:51:56;25.50;93.00
21805;DHT22;11064;47.102;15.452;2023-07-29T08:54:23;25.50;92.50
21805;DHT22;11064;47.102;15.452;2023-07-29T08:56:49;25.80;93.40
21805;DHT22;11064;47.102;15.452;2023-07-29T08:59:16;26.00;96.40
21805;DHT22;11064;47.102;15.452;2023-07-29T09:01:42;26.10;97.80
21805;DHT22;11064;47.102;15.452;2023-07-29T09:04:09;26.40;98.40
21805;DHT22;11064;47.102;15.452;2023-07-29T09:06:35;26.30;92.20
21805;DHT22;11064;47.102;15.452;2023-07-29T09:09:04;26.40;93.20
21805;DHT22;11064;47.102;15.452;2023-07-29T09:11:31;26.50;96.10
21805;DHT22;11064;47.102;15.452;2023-07-29T09:13:58;26.70;93.50
21805;DHT22;11064;47.102;15.452;2023-07-29T09:16:24;26.80;94.40
21805;DHT22;11064;47.102;15.452;2023-07-29T09:18:51;26.90;94.40
21805;DHT22;11064;47.102;15.452;2023-07-29T09:21:20;26.90;94.90
21805;DHT22;11064;47.102;15.452;2023-07-29T09:23:50;27.10;96.20
21805;DHT22;11064;47.102;15.452;2023-07-29T09:26:23;26.80;92.00
21805;DHT22;11064;47.102;15.452;2023-07-29T09:28:52;27.00;93.10
21805;DHT22;11064;47.102;15.452;2023-07-29T09:31:20;27.00;92.70
21805;DHT22;11064;47.102;15.452;2023-07-29T09:33:46;27.00;92.80
21805;DHT22;11064;47.102;15.452;2023-07-29T09:36:12;27.10;94.20
21805;DHT22;11064;47.102;15.452;2023-07-29T09:38:39;27.30;93.60
21805;DHT22;11064;47.102;15.452;2023-07-29T09:41:05;27.20;94.30
21805;DHT22;11064;47.102;15.452;2023-07-29T09:43:34;27.20;92.60
21805;DHT22;11064;47.102;15.452;2023-07-29T09:46:01;27.20;91.30
21805;DHT22;11064;47.102;15.452;2023-07-29T09:48:27;27.30;92.90
21805;DHT22;11064;47.102;15.452;2023-07-29T09:50:56;27.40;91.20
21805;DHT22;11064;47.102;15.452;2023-07-29T09:53:22;27.50;90.20
21805;DHT22;11064;47.102;15.452;2023-07-29T09:55:48;27.60;89.60
21805;DHT22;11064;47.102;15.452;2023-07-29T09:58:26;27.60;90.90
21805;DHT22;11064;47.102;15.452;2023-07-29T10:00:52;27.60;90.20
21805;DHT22;11064;47.102;15.452;2023-07-29T10:03:20;27.80;91.30
21805;DHT22;11064;47.102;15.452;2023-07-29T10:05:46;27.90;91.20
21805;DHT22;11064;47.102;15.452;2023-07-29T10:08:13;28.00;90.80
21805;DHT22;11064;47.102;15.452;2023-07-29T10:10:42;28.10;92.00
21805;DHT22;11064;47.102;15.452;2023-07-29T10:13:08;28.30;89.60
21805;DHT22;11064;47.102;15.452;2023-07-29T10:15:36;28.30;85.30
21805;DHT22;11064;47.102;15.452;2023-07-29T10:18:02;28.30;85.90
21805;DHT22;11064;47.102;15.452;2023-07-29T10:20:30;28.40;86.70
21805;DHT22;11064;47.102;15.452;2023-07-29T10:23:00;28.40;84.90
21805;DHT22;11064;47.102;15.452;2023-07-29T10:25:38;28.30;82.70
21805;DHT22;11064;47.102;15.452;2023-07-29T10:28:08;28.50;89.10
21805;DHT22;11064;47.102;15.452;2023-07-29T10:30:38;28.60;82.70
21805;DHT22;11064;47.102;15.452;2023-07-29T10:33:05;28.40;80.60
21805;DHT22;11064;47.102;15.452;2023-07-29T10:35:35;28.40;87.20
21805;DHT22;11064;47.102;15.452;2023-07-29T10:38:03;28.40;85.20
21805;DHT22;11064;47.102;15.452;2023-07-29T10:40:54;28.50;83.30
21805;DHT22;11064;47.102;15.452;2023-07-29T10:45:56;29.10;82.70
21805;DHT22;11064;47.102;15.452;2023-07-29T10:51:24;29.20;83.70
21805;DHT22;11064;47.102;15.452;2023-07-29T10:54:18;29.40;84.20
21805;DHT22;11064;47.102;15.452;2023-07-29T10:56:48;29.50;80.80
21805;DHT22;11064;47.102;15.452;2023-07-29T11:02:00;29.60;82.00
21805;DHT22;11064;47.102;15.452;2023-07-29T11:04:28;29.50;78.60
21805;DHT22;11064;47.102;15.452;2023-07-29T11:15:26;28.70;82.50
21805;DHT22;11064;47.102;15.452;2023-07-29T11:18:00;28.50;86.70
21805;DHT22;11064;47.102;15.452;2023-07-29T11:20:30;28.80;80.70
21805;DHT22;11064;47.102;15.452;2023-07-29T11:23:01;28.80;75.80
21805;DHT22;11064;47.102;15.452;2023-07-29T11:25:29;29.40;78.80
21805;DHT22;11064;47.102;15.452;2023-07-29T11:27:57;30.00;78.80
21805;DHT22;11064;47.102;15.452;2023-07-29T11:30:24;30.60;77.30
21805;DHT22;11064;47.102;15.452;2023-07-29T11:32:53;31.50;69.30
21805;DHT22;11064;47.102;15.452;2023-07-29T11:35:20;32.40;61.90
21805;DHT22;11064;47.102;15.452;2023-07-29T11:37:50;32.70;60.70
21805;DHT22;11064;47.102;15.452;2023-07-29T11:40:20;32.40;61.50
21805;DHT22;11064;47.102;15.452;2023-07-29T11:42:48;32.90;63.10
21805;DHT22;11064;47.102;15.452;2023-07-29T11:45:16;32.80;60.50
21805;DHT22;11064;47.102;15.452;2023-07-29T11:47:42;33.00;61.70
21805;DHT22;11064;47.102;15.452;2023-07-29T11:50:10;32.90;60.30
21805;DHT22;11064;47.102;15.452;2023-07-29T11:52:37;31.90;62.40
21805;DHT22;11064;47.102;15.452;2023-07-29T11:55:05;31.60;64.30
21805;DHT22;11064;47.102;15.452;2023-07-29T11:57:34;31.20;67.90
21805;DHT22;11064;47.102;15.452;2023-07-29T12:00:07;30.90;69.10
21805;DHT22;11064;47.102;15.452;2023-07-29T12:02:38;30.50;70.20
21805;DHT22;11064;47.102;15.452;2023-07-29T12:05:07;30.30;71.50
21805;DHT22;11064;47.102;15.452;2023-07-29T12:07:34;29.70;68.00
21805;DHT22;11064;47.102;15.452;2023-07-29T12:10:00;29.70;71.10
21805;DHT22;11064;47.102;15.452;2023-07-29T12:12:28;29.80;73.80
21805;DHT22;11064;47.102;15.452;2023-07-29T12:14:55;29.60;74.30
21805;DHT22;11064;47.102;15.452;2023-07-29T12:17:21;29.70;74.80
21805;DHT22;11064;47.102;15.452;2023-07-29T12:19:47;29.70;71.60
21805;DHT22;11064;47.102;15.452;2023-07-29T12:22:18;29.70;71.70
21805;DHT22;11064;47.102;15.452;2023-07-29T12:24:44;29.70;74.30
21805;DHT22;11064;47.102;15.452;2023-07-29T12:27:11;29.90;73.50
21805;DHT22;11064;47.102;15.452;2023-07-29T12:29:42;29.90;73.10
21805;DHT22;11064;47.102;15.452;2023-07-29T12:32:09;29.90;68.30
21805;DHT22;11064;47.102;15.452;2023-07-29T12:34:37;29.90;69.30
21805;DHT22;11064;47.102;15.452;2023-07-29T12:37:05;30.20;67.50
21805;DHT22;11064;47.102;15.452;2023-07-29T12:39:34;30.40;64.70
21805;DHT22;11064;47.102;15.452;2023-07-29T12:42:01;31.10;67.50
21805;DHT22;11064;47.102;15.452;2023-07-29T12:44:35;31.40;65.70
21805;DHT22;11064;47.102;15.452;2023-07-29T12:47:02;31.90;66.30
21805;DHT22;11064;47.102;15.452;2023-07-29T12:49:29;31.70;65.40
21805;DHT22;11064;47.102;15.452;2023-07-29T12:51:58;31.30;68.70
21805;DHT22;11064;47.102;15.452;2023-07-29T12:54:24;31.50;69.30
21805;DHT22;11064;47.102;15.452;2023-07-29T12:56:50;31.80;68.90
21805;DHT22;11064;47.102;15.452;2023-07-29T12:59:16;31.50;65.30
21805;DHT22;11064;47.102;15.452;2023-07-29T13:01:41;31.10;70.10
21805;DHT22;11064;47.102;15.452;2023-07-29T13:04:09;30.90;70.90
21805;DHT22;11064;47.102;15.452;2023-07-29T13:06:34;30.60;72.10
21805;DHT22;11064;47.102;15.452;2023-07-29T13:09:00;29.90;69.20
21805;DHT22;11064;47.102;15.452;2023-07-29T13:11:26;29.00;75.00
21805;DHT22;11064;47.102;15.452;2023-07-29T13:13:52;28.50;80.80
21805;DHT22;11064;47.102;15.452;2023-07-29T13:16:18;27.10;83.20
21805;DHT22;11064;47.102;15.452;2023-07-29T13:18:44;25.90;92.50
21805;DHT22;11064;47.102;15.452;2023-07-29T13:21:10;25.10;99.90
21805;DHT22;11064;47.102;15.452;2023-07-29T13:23:36;24.80;98.50
21805;DHT22;11064;47.102;15.452;2023-07-29T13:26:02;23.70;99.90
21805;DHT22;11064;47.102;15.452;2023-07-29T13:28:28;23.00;99.90
21805;DHT22;11064;47.102;15.452;2023-07-29T13:30:54;22.50;99.90
21805;DHT22;11064;47.102;15.452;2023-07-29T13:33:19;22.30;99.90
21805;DHT22;11064;47.102;15.452;2023-07-29T13:35:45;22.30;99.90
21805;DHT22;11064;47.102;15.452;2023-07-29T13:38:11;22.60;99.90
21805;DHT22;11064;47.102;15.452;2023-07-29T13:40:37;23.30;99.90
21805;DHT22;11064;47.102;15.452;2023-07-29T13:43:03;24.20;99.90
21805;DHT22;11064;47.102;15.452;2023-07-29T13:45:29;24.90;99.90
21805;DHT22;11064;47.102;15.452;2023-07-29T13:47:54;25.50;99.90
21805;DHT22;11064;47.102;15.452;2023-07-29T13:50:20;26.00;99.90
21805;DHT22;11064;47.102;15.452;2023-07-29T13:52:46;26.50;97.00
21805;DHT22;11064;47.102;15.452;2023-07-29T13:55:12;27.00;98.10
21805;DHT22;11064;47.102;15.452;2023-07-29T13:57:38;27.20;93.30
21805;DHT22;11064;47.102;15.452;2023-07-29T14:00:06;27.60;93.20
21805;DHT22;11064;47.102;15.452;2023-07-29T14:02:32;27.80;92.80
21805;DHT22;11064;47.102;15.452;2023-07-29T14:04:58;28.00;91.20
21805;DHT22;11064;47.102;15.452;2023-07-29T14:07:24;28.20;90.90
21805;DHT22;11064;47.102;15.452;2023-07-29T14:09:50;28.30;92.70
21805;DHT22;11064;47.102;15.452;2023-07-29T14:12:16;28.50;93.70
21805;DHT22;11064;47.102;15.452;2023-07-29T14:14:42;28.40;90.70
21805;DHT22;11064;47.102;15.452;2023-07-29T14:17:08;28.40;92.70
21805;DHT22;11064;47.102;15.452;2023-07-29T14:19:35;28.40;93.70
21805;DHT22;11064;47.102;15.452;2023-07-29T14:22:01;28.30;93.90
21805;DHT22;11064;47.102;15.452;2023-07-29T14:24:27;28.00;94.50
21805;DHT22;11064;47.102;15.452;2023-07-29T14:26:53;27.70;91.50
21805;DHT22;11064;47.102;15.452;2023-07-29T14:29:19;27.60;93.90
21805;DHT22;11064;47.102;15.452;2023-07-29T14:31:45;27.50;94.20
21805;DHT22;11064;47.102;15.452;2023-07-29T14:34:11;27.40;94.50
21805;DHT22;11064;47.102;15.452;2023-07-29T14:36:37;27.20;92.50
21805;DHT22;11064;47.102;15.452;2023-07-29T14:39:03;27.20;91.40
21805;DHT22;11064;47.102;15.452;2023-07-29T14:41:30;27.30;92.20
21805;DHT22;11064;47.102;15.452;2023-07-29T14:43:56;27.50;94.00
21805;DHT22;11064;47.102;15.452;2023-07-29T14:46:22;27.90;93.00
21805;DHT22;11064;47.102;15.452;2023-07-29T14:48:48;28.50;91.80
21805;DHT22;11064;47.102;15.452;2023-07-29T14:51:14;29.20;91.30
21805;DHT22;11064;47.102;15.452;2023-07-29T14:53:40;29.30;84.00
21805;DHT22;11064;47.102;15.452;2023-07-29T14:56:06;29.40;83.70
21805;DHT22;11064;47.102;15.452;2023-07-29T14:58:32;29.10;87.80
21805;DHT22;11064;47.102;15.452;2023-07-29T15:00:58;28.90;87.00
21805;DHT22;11064;47.102;15.452;2023-07-29T15:03:24;28.40;86.90
21805;DHT22;11064;47.102;15.452;2023-07-29T15:05:50;28.30;88.80
21805;DHT22;11064;47.102;15.452;2023-07-29T15:08:17;28.50;89.50
21805;DHT22;11064;47.102;15.452;2023-07-29T15:10:47;28.40;86.40
21805;DHT22;11064;47.102;15.452;2023-07-29T15:13:13;27.90;87.80
21805;DHT22;11064;47.102;15.452;2023-07-29T15:15:43;27.40;88.80
21805;DHT22;11064;47.102;15.452;2023-07-29T15:18:09;27.00;90.40
21805;DHT22;11064;47.102;15.452;2023-07-29T15:20:35;26.90;90.40
21805;DHT22;11064;47.102;15.452;2023-07-29T15:23:01;26.90;91.20
21805;DHT22;11064;47.102;15.452;2023-07-29T15:25:28;26.80;91.30
21805;DHT22;11064;47.102;15.452;2023-07-29T15:27:54;26.90;91.10
21805;DHT22;11064;47.102;15.452;2023-07-29T15:30:21;27.00;91.90
21805;DHT22;11064;47.102;15.452;2023-07-29T15:32:47;27.10;90.40
21805;DHT22;11064;47.102;15.452;2023-07-29T15:35:13;27.10;90.20
21805;DHT22;11064;47.102;15.452;2023-07-29T15:37:39;27.20;91.00
21805;DHT22;11064;47.102;15.452;2023-07-29T15:40:05;27.90;90.90
21805;DHT22;11064;47.102;15.452;2023-07-29T15:42:33;28.50;88.60
21805;DHT22;11064;47.102;15.452;2023-07-29T15:44:58;28.70;84.60
21805;DHT22;11064;47.102;15.452;2023-07-29T15:47:24;28.50;83.30
21805;DHT22;11064;47.102;15.452;2023-07-29T15:49:50;28.20;87.00
21805;DHT22;11064;47.102;15.452;2023-07-29T15:52:16;27.90;89.80